This demonstration page uses our WeatherBlox Daily Observations layout. Learn more.

Left ArrowRight Arrow

41.86663, -103.66717

Hourly Observations for July 22, 2020

Temp ( °F °C ) Dew Point ( °F °C ) Humidity (%) Winds ( mph kmh ) Pressure ( in mb ) Visibility ( mi km ) Precip ( " mm )
12:53 am 00:53 Clear 63 17.2 56 13.3 78 78 S 3 6 29.9 1012 10 16.0934 0 0
1:53 am 01:53 Clear 59 15 56 13.3 90 90 undefined N/A 29.9 1013 10 16.0934 0 0
2:53 am 02:53 Clear 59 15 57 13.9 93 93 N 3 6 29.9 1013 10 16.0934 0 0
3:53 am 03:53 Clear 56 13.3 55 12.8 97 97 W 3 6 29.91 1013 10 16.0934 0 0
4:53 am 04:53 Clear 58 14.4 56 13.3 93 93 undefined N/A 29.9 1013 10 16.0934 0 0
5:53 am 05:53 Sunny 59 15 56 13.3 90 90 undefined N/A 29.91 1013 10 16.0934 0 0
6:53 am 06:53 Sunny 63 17.2 57 13.9 81 81 undefined N/A 29.9 1013 10 16.0934 0 0
7:53 am 07:53 Sunny 68 20 59 15 73 73 ESE 10 17 29.9 1013 10 16.0934 0 0
8:53 am 08:53 Sunny 72 22.2 58 14.4 61 61 ESE 10 17 29.9 1012 10 16.0934 0 0
9:53 am 09:53 Sunny 76 24.4 60 15.6 58 58 SE 13 20 29.89 1012 10 16.0934 0 0
10:53 am 10:53 Sunny 80 26.7 62 16.7 54 54 SE 9 15 29.87 1012 10 16.0934 0 0
11:53 am 11:53 Sunny 82 27.8 62 16.7 51 51 ESE 12 19 29.87 1011 10 16.0934 0 0
12:53 pm 12:53 Sunny 86 30 63 17.2 46 46 ESE 15 24 29.84 1011 10 16.0934 0 0
1:53 pm 13:53 Sunny 88 31.1 63 17.2 43 43 SE 15 24 29.83 1010 10 16.0934 0 0
2:53 pm 14:53 Sunny 91 32.8 63 17.2 39 39 SE 13 20 29.81 1010 10 16.0934 0 0
3:53 pm 15:53 Sunny 90 32.2 62 16.7 39 39 ESE 15 24 29.8 1009 10 16.0934 0 0
4:53 pm 16:53 Sunny 92 33.3 62 16.7 37 37 ESE 14 22 29.79 1009 10 16.0934 0 0
5:53 pm 17:53 Sunny 88 31.1 65 18.3 46 46 E 9 15 29.78 1008 10 16.0934 0 0
6:53 pm 18:53 Sunny 85 29.4 68 20 57 57 E 9 15 29.77 1008 10 16.0934 0 0
7:53 pm 19:53 Sunny 83 28.3 67 19.4 59 59 undefined N/A 29.78 1008 10 16.0934 0 0
8:53 pm 20:53 Clear 81 27.2 67 19.4 62 62 E 9 15 29.79 1009 10 16.0934 0 0
9:53 pm 21:53 Clear 80 26.7 67 19.4 64 64 ESE 16 26 29.78 1009 10 16.0934 0 0
10:53 pm 22:53 Clear 75 23.9 67 19.4 76 76 ESE 7 11 29.79 1009 10 16.0934 0 0
11:53 pm 23:53 Clear 74 23.3 66 18.9 76 76 E 9 15 29.8 1009 10 16.0934 0 0

Powered by AerisWeather